Time;durP1;ratioP1;P1;durP2;ratioP2;P2;SDS_P1;SDS_P2;PMS_P1;PMS_P2;Temp;Humidity;BMP_temperature;BMP_pressure;BME280_temperature;BME280_humidity;BME280_pressure;Samples;Min_cycle;Max_cycle;Signal;HPM_P1;HPM_P2
2022/05/28 00:00:08;;;;;;;0.40;0.30;;;12.00;1.40;;;12.70;100.00;95653.22;647312;216;33143;-75
2022/05/28 00:02:50;;;;;;;1.00;0.50;;;11.90;1.40;;;12.74;100.00;95650.93;645951;212;31510;-75
2022/05/28 00:05:31;;;;;;;0.50;0.40;;;12.00;1.40;;;12.67;100.00;95650.78;645987;216;32884;-75
2022/05/28 00:08:13;;;;;;;0.50;0.25;;;11.90;1.40;;;12.55;100.00;95649.17;619298;222;32077;-75
2022/05/28 00:13:29;;;;;;;0.90;0.40;;;11.70;1.40;;;12.29;100.00;95640.91;646144;212;31967;-75
2022/05/28 00:16:11;;;;;;;0.50;0.30;;;11.50;1.40;;;12.17;100.00;95637.81;647113;216;31682;-75
2022/05/28 00:18:53;;;;;;;0.80;0.30;;;11.40;1.40;;;12.16;100.00;95635.45;646012;212;31520;-75
2022/05/28 00:21:34;;;;;;;0.40;0.20;;;11.40;1.40;;;12.14;100.00;95638.49;647808;212;31524;-76
2022/05/28 00:24:19;;;;;;;0.50;0.40;;;11.50;1.40;;;12.04;100.00;95635.56;630479;222;31869;-75
2022/05/28 00:27:02;;;;;;;0.60;0.50;;;11.40;1.40;;;12.03;100.00;95639.38;646483;216;31522;-76
2022/05/28 00:29:43;;;;;;;0.80;0.70;;;11.40;1.40;;;12.00;100.00;95634.77;648232;216;31487;-77
2022/05/28 00:32:31;;;;;;;0.67;0.67;;;11.30;1.40;;;12.03;100.00;95635.25;646996;216;42108;-77
2022/05/28 00:35:54;;;;;;;0.57;0.32;;;11.40;1.40;;;11.91;100.00;95630.01;616271;227;32235;-75
2022/05/28 00:38:36;;;;;;;1.00;0.50;;;11.20;1.40;;;11.95;100.00;95627.19;646485;216;31530;-76
2022/05/28 00:41:17;;;;;;;0.60;0.50;;;11.30;1.40;;;11.88;100.00;95626.80;646365;215;31475;-76
2022/05/28 00:43:59;;;;;;;1.30;0.37;;;11.20;1.40;;;11.83;100.00;95623.86;647260;216;42420;-76
2022/05/28 00:46:44;;;;;;;0.50;0.30;;;11.20;1.40;;;11.79;100.00;95625.03;646577;216;31550;-76
2022/05/28 00:49:27;;;;;;;0.40;0.30;;;11.10;1.40;;;11.75;100.00;95630.97;646917;213;43668;-76
2022/05/28 00:52:08;;;;;;;0.40;0.20;;;11.10;1.40;;;11.61;100.00;95625.63;647541;216;42774;-76
2022/05/28 00:54:55;;;;;;;0.50;0.30;;;10.90;1.40;;;11.62;100.00;95619.73;629970;224;33801;-77
2022/05/28 00:57:40;;;;;;;0.40;0.23;;;11.00;1.40;;;11.54;100.00;95616.48;646914;216;42128;-77
2022/05/28 01:00:21;;;;;;;0.90;0.60;;;10.90;1.40;;;11.56;100.00;95614.28;648409;212;31528;-78
2022/05/28 01:03:24;;;;;;;0.40;0.30;;;10.90;1.40;;;11.58;100.00;95614.17;646353;216;32062;-76
2022/05/28 01:06:09;;;;;;;0.40;0.20;;;10.90;1.40;;;11.58;100.00;95612.88;645893;216;31508;-76
2022/05/28 01:08:55;;;;;;;1.23;0.40;;;10.90;1.40;;;11.55;100.00;95611.80;643294;212;42363;-76
2022/05/28 01:12:04;;;;;;;0.60;0.30;;;11.00;1.40;;;11.55;100.00;95606.65;645993;216;42747;-76
2022/05/28 01:17:40;;;;;;;0.40;0.30;;;11.10;1.40;;;11.78;100.00;95607.00;647086;216;31550;-77
2022/05/28 01:20:25;;;;;;;0.60;0.50;;;11.10;1.40;;;11.82;100.00;95604.82;645351;212;42118;-75
2022/05/28 01:23:33;;;;;;;0.40;0.30;;;11.20;1.40;;;11.95;100.00;95604.53;646653;216;42111;-76
2022/05/28 01:26:32;;;;;;;0.70;0.70;;;11.30;1.40;;;12.02;100.00;95601.27;647288;216;31756;-76
2022/05/28 01:29:14;;;;;;;0.50;0.40;;;11.40;1.40;;;12.15;100.00;95598.94;647098;216;31516;-76
2022/05/28 01:31:58;;;;;;;1.10;0.40;;;11.60;1.40;;;12.25;100.00;95597.92;647336;216;32084;-75
2022/05/28 01:35:51;;;;;;;0.60;0.60;;;11.70;1.40;;;12.35;100.00;95603.95;645997;216;31517;-76
2022/05/28 01:38:38;;;;;;;0.40;0.30;;;11.70;1.40;;;12.37;100.00;95604.92;649508;212;42369;-80
2022/05/28 01:41:20;;;;;;;0.80;0.40;;;11.70;1.40;;;12.40;100.00;95602.93;646754;216;31486;-78
2022/05/28 01:44:08;;;;;;;0.60;0.60;;;11.80;1.40;;;12.42;100.00;95604.80;644875;212;39232;-76
2022/05/28 01:46:49;;;;;;;0.60;0.40;;;11.70;1.40;;;12.44;100.00;95601.69;647520;216;31502;-76
2022/05/28 01:49:31;;;;;;;1.42;0.40;;;11.80;1.40;;;12.48;100.00;95607.81;647082;216;41353;-76
2022/05/28 01:52:13;;;;;;;0.40;0.30;;;11.80;1.40;;;12.52;100.00;95601.79;619033;226;31873;-76
2022/05/28 01:54:54;;;;;;;0.50;0.43;;;11.90;1.40;;;12.56;100.00;95604.97;619171;226;31869;-76
2022/05/28 01:57:42;;;;;;;0.50;0.30;;;11.80;1.40;;;12.57;100.00;95603.44;619162;222;31810;-78
2022/05/28 02:00:24;;;;;;;0.60;0.60;;;11.90;1.40;;;12.69;100.00;95603.30;632173;221;31716;-78
2022/05/28 02:03:11;;;;;;;0.57;0.50;;;11.80;1.40;;;12.80;100.00;95606.15;619138;226;31854;-75
2022/05/28 02:05:54;;;;;;;0.40;0.30;;;11.90;1.40;;;12.68;100.00;95603.31;647206;216;31509;-76
2022/05/28 02:08:35;;;;;;;0.50;0.33;;;11.80;1.40;;;12.62;100.00;95605.11;644385;216;31675;-76
2022/05/28 02:11:17;;;;;;;0.70;0.70;;;11.70;1.40;;;12.54;100.00;95596.83;645984;216;32118;-75
2022/05/28 02:14:10;;;;;;;0.50;0.40;;;11.60;1.40;;;12.45;100.00;95595.91;646552;216;31544;-75
2022/05/28 02:17:08;;;;;;;0.53;0.50;;;11.60;1.40;;;12.41;100.00;95593.33;647410;216;31768;-76
2022/05/28 02:20:24;;;;;;;0.40;0.30;;;11.50;1.40;;;12.31;100.00;95589.98;647603;216;31969;-75
2022/05/28 02:23:16;;;;;;;0.80;0.40;;;11.50;1.40;;;12.30;100.00;95588.91;646463;216;31552;-76
2022/05/28 02:26:01;;;;;;;0.90;0.70;;;11.40;1.40;;;12.28;100.00;95586.40;619089;222;31840;-75
2022/05/28 02:28:42;;;;;;;1.20;0.50;;;11.40;1.40;;;12.37;100.00;95587.09;646601;216;31639;-75
2022/05/28 02:31:27;;;;;;;0.50;0.50;;;11.50;1.40;;;12.51;100.00;95589.73;645518;212;31558;-76
2022/05/28 02:35:52;;;;;;;0.40;0.30;;;11.70;1.40;;;12.61;100.00;95584.34;647491;212;32234;-75
2022/05/28 02:38:33;;;;;;;0.60;0.60;;;11.70;1.40;;;12.57;100.00;95583.20;645637;216;32029;-75
2022/05/28 02:41:15;;;;;;;1.65;0.90;;;11.70;1.40;;;12.62;100.00;95586.55;647460;216;31634;-76
2022/05/28 02:43:57;;;;;;;0.63;0.43;;;11.70;1.40;;;12.62;100.00;95583.98;646643;212;31815;-76
2022/05/28 02:46:39;;;;;;;0.80;0.70;;;11.70;1.40;;;12.66;100.00;95592.35;645900;216;31535;-76
2022/05/28 02:49:20;;;;;;;1.00;0.90;;;11.80;1.40;;;12.75;100.00;95586.75;618334;226;31860;-76
2022/05/28 02:52:02;;;;;;;1.10;0.80;;;11.80;1.40;;;12.72;100.00;95590.27;647289;216;31581;-75
2022/05/28 02:54:44;;;;;;;0.70;0.70;;;11.80;1.40;;;12.76;100.00;95593.10;645173;216;31871;-76
2022/05/28 02:57:25;;;;;;;0.70;0.60;;;11.80;1.40;;;12.75;100.00;95590.52;646776;216;31515;-76
2022/05/28 03:00:08;;;;;;;0.80;0.60;;;11.70;1.40;;;12.71;100.00;95582.20;646830;216;31591;-76
2022/05/28 03:02:50;;;;;;;1.00;0.90;;;11.70;1.40;;;12.69;100.00;95583.38;646860;216;31842;-76
2022/05/28 03:05:35;;;;;;;0.60;0.50;;;11.70;1.40;;;12.64;100.00;95582.36;645694;216;31488;-76
2022/05/28 03:08:19;;;;;;;0.70;0.40;;;11.60;1.40;;;12.67;100.00;95583.98;646185;216;32008;-76
2022/05/28 03:11:01;;;;;;;0.80;0.60;;;11.60;1.40;;;12.49;100.00;95587.45;646057;212;32156;-76
2022/05/28 03:13:43;;;;;;;0.50;0.30;;;11.60;1.40;;;12.40;100.00;95579.02;645732;216;32303;-76
2022/05/28 03:16:28;;;;;;;3.20;0.60;;;11.50;1.40;;;12.46;100.00;95583.94;646047;216;42147;-75
2022/05/28 03:19:09;;;;;;;1.43;0.60;;;11.50;1.40;;;12.54;100.00;95589.00;620041;226;31812;-76
2022/05/28 03:21:51;;;;;;;0.70;0.70;;;11.50;1.40;;;12.50;100.00;95592.09;646939;212;31522;-76
2022/05/28 03:24:33;;;;;;;0.60;0.60;;;11.50;1.40;;;12.48;100.00;95590.91;645077;216;31534;-76
2022/05/28 03:27:14;;;;;;;0.63;0.63;;;11.40;1.40;;;12.45;100.00;95593.55;619898;226;31902;-76
2022/05/28 03:29:56;;;;;;;0.90;0.50;;;11.40;1.40;;;12.43;100.00;95591.70;647727;216;31657;-76
2022/05/28 03:32:38;;;;;;;0.97;0.60;;;11.40;1.40;;;12.43;100.00;95594.27;646133;216;31502;-75
2022/05/28 03:35:51;;;;;;;0.40;0.30;;;11.50;1.40;;;12.48;100.00;95596.45;647462;212;32529;-76
2022/05/28 03:41:07;;;;;;;0.80;0.40;;;11.50;1.40;;;12.45;100.00;95603.09;644737;212;31585;-76
2022/05/28 03:43:49;;;;;;;0.93;0.87;;;11.40;1.40;;;12.48;100.00;95605.11;647017;216;31495;-75
2022/05/28 03:49:07;;;;;;;1.20;0.60;;;11.40;1.40;;;12.35;100.00;95603.84;646260;216;42219;-75
2022/05/28 03:51:49;;;;;;;0.80;0.60;;;11.30;1.40;;;12.34;100.00;95609.61;646815;212;32076;-75
2022/05/28 03:54:30;;;;;;;0.90;0.70;;;11.40;1.40;;;12.31;100.00;95610.53;645715;216;31505;-75
2022/05/28 03:57:15;;;;;;;0.50;0.40;;;11.30;1.40;;;12.45;100.00;95605.95;618660;226;31886;-76
2022/05/28 03:59:57;;;;;;;1.30;0.70;;;11.30;1.40;;;12.38;100.00;95607.51;630732;220;31582;-76
2022/05/28 04:02:38;;;;;;;0.90;0.90;;;11.40;1.40;;;12.43;100.00;95612.33;647767;212;42667;-76
2022/05/28 04:05:22;;;;;;;1.10;1.00;;;11.30;1.40;;;12.57;100.00;95610.62;645314;216;31618;-76
2022/05/28 04:08:02;;;;;;;1.23;0.90;;;11.40;1.40;;;12.71;100.00;95618.80;646949;212;31511;-76
2022/05/28 04:10:43;;;;;;;1.50;1.10;;;11.50;1.40;;;12.78;100.00;95622.53;646519;216;31534;-76
2022/05/28 04:13:25;;;;;;;1.70;0.70;;;11.50;1.40;;;12.78;100.00;95629.55;646977;216;31894;-76
2022/05/28 04:16:07;;;;;;;0.70;0.67;;;11.50;1.40;;;12.72;100.00;95631.73;645644;216;31547;-76
2022/05/28 04:18:48;;;;;;;6.30;1.30;;;11.40;1.40;;;12.45;100.00;95633.92;646132;216;34996;-75
2022/05/28 04:21:30;;;;;;;1.02;0.80;;;11.40;1.40;;;12.47;100.00;95636.55;619564;226;32072;-75
2022/05/28 04:24:12;;;;;;;1.55;0.90;;;11.40;1.40;;;12.31;100.00;95638.75;647061;212;31534;-75
2022/05/28 04:26:57;;;;;;;1.50;1.20;;;11.30;1.40;;;12.36;100.00;95642.86;646658;216;31558;-76
2022/05/28 04:29:38;;;;;;;2.10;1.10;;;11.20;1.40;;;12.47;100.00;95647.22;646378;216;31537;-75
2022/05/28 04:32:20;;;;;;;1.03;0.50;;;11.20;1.40;;;12.30;100.00;95645.25;647146;212;42706;-75
2022/05/28 04:35:51;;;;;;;0.93;0.90;;;11.00;1.40;;;12.15;100.00;95650.31;645730;212;31969;-75
2022/05/28 04:38:33;;;;;;;0.80;0.70;;;11.00;1.40;;;12.16;100.00;95652.06;619520;225;31868;-75
2022/05/28 04:41:15;;;;;;;2.07;0.70;;;10.90;1.40;;;12.13;100.00;95654.28;645392;216;42197;-75
2022/05/28 04:43:56;;;;;;;2.40;0.80;;;10.90;1.40;;;12.19;100.00;95650.42;647353;212;31542;-75
2022/05/28 04:46:38;;;;;;;1.80;0.80;;;11.00;1.40;;;12.30;100.00;95652.09;644865;212;31603;-75
2022/05/28 04:49:20;;;;;;;1.20;0.80;;;11.20;1.40;;;12.44;100.00;95650.53;619257;226;43053;-75
2022/05/28 04:52:01;;;;;;;1.27;0.97;;;11.10;1.40;;;12.37;100.00;95652.30;646774;216;32061;-75
2022/05/28 04:54:46;;;;;;;0.80;0.80;;;11.00;1.40;;;12.18;100.00;95653.66;646239;216;31594;-75
2022/05/28 04:57:28;;;;;;;1.90;0.75;;;10.90;1.40;;;12.31;100.00;95657.51;645262;216;31481;-75
2022/05/28 05:00:11;;;;;;;2.90;0.60;;;10.90;1.40;;;12.19;100.00;95658.86;615645;226;32299;-75
2022/05/28 05:02:52;;;;;;;1.00;0.90;;;10.80;1.40;;;12.20;100.00;95658.52;646535;216;31556;-76
2022/05/28 05:05:34;;;;;;;1.90;0.73;;;10.80;1.40;;;12.12;100.00;95660.50;646835;216;32549;-75
2022/05/28 05:08:16;;;;;;;1.70;0.80;;;10.70;1.40;;;11.87;100.00;95662.44;645318;216;31563;-75
2022/05/28 05:10:58;;;;;;;3.40;0.80;;;10.70;1.40;;;11.89;100.00;95660.98;647064;212;32617;-75
2022/05/28 05:13:42;;;;;;;1.00;0.80;;;10.70;1.40;;;12.07;100.00;95659.92;646236;212;31569;-76
2022/05/28 05:16:24;;;;;;;2.60;0.90;;;10.80;1.40;;;12.31;100.00;95656.14;647128;212;42713;-75
2022/05/28 05:19:06;;;;;;;1.90;0.60;;;10.90;1.40;;;12.30;100.00;95658.93;647290;212;32350;-75
2022/05/28 05:21:47;;;;;;;1.10;0.50;;;11.00;1.40;;;12.40;100.00;95665.20;645946;212;42120;-76
2022/05/28 05:24:29;;;;;;;2.25;0.95;;;11.10;1.40;;;12.17;100.00;95668.03;646586;216;31495;-76
2022/05/28 05:27:11;;;;;;;1.67;0.80;;;11.00;1.40;;;12.32;100.00;95665.84;645794;216;31547;-76
2022/05/28 05:29:57;;;;;;;2.08;0.70;;;11.00;1.40;;;12.36;100.00;95665.16;619366;226;42430;-75
2022/05/28 05:32:38;;;;;;;2.10;0.80;;;11.00;1.40;;;12.44;100.00;95666.58;647564;212;32025;-75
2022/05/28 05:35:51;;;;;;;0.80;0.80;;;11.10;1.40;;;12.21;100.00;95664.30;647047;216;31814;-75
2022/05/28 05:38:33;;;;;;;0.90;0.60;;;10.90;1.40;;;12.33;100.00;95667.19;618303;226;31893;-76
2022/05/28 05:41:14;;;;;;;1.90;0.80;;;11.00;1.40;;;12.25;100.00;95665.12;648360;216;31736;-75
2022/05/28 05:43:59;;;;;;;0.57;0.50;;;10.90;1.40;;;12.23;100.00;95670.11;645519;216;32115;-75
2022/05/28 05:46:41;;;;;;;1.50;1.10;;;11.00;1.40;;;12.46;100.00;95665.52;646611;216;31664;-75
2022/05/28 05:49:25;;;;;;;3.72;1.33;;;11.20;1.40;;;12.32;100.00;95674.06;647433;216;31711;-76
2022/05/28 05:52:07;;;;;;;2.40;0.93;;;11.10;1.40;;;12.11;100.00;95672.86;647804;216;42090;-75
2022/05/28 05:54:52;;;;;;;1.00;0.70;;;10.80;1.40;;;12.18;100.00;95672.16;645792;216;31563;-76
2022/05/28 05:57:34;;;;;;;2.20;0.80;;;10.90;1.40;;;12.08;100.00;95671.16;646341;216;31676;-75
2022/05/28 06:00:19;;;;;;;1.47;0.60;;;10.80;1.40;;;12.19;100.00;95669.63;645864;216;32090;-75
2022/05/28 06:03:01;;;;;;;1.80;0.90;;;10.90;1.40;;;12.27;100.00;95672.05;647363;216;42089;-76
2022/05/28 06:05:45;;;;;;;0.75;0.75;;;11.10;1.40;;;12.39;100.00;95671.21;647988;212;31570;-80
2022/05/28 06:08:33;;;;;;;1.53;0.90;;;11.30;1.40;;;12.42;100.00;95672.65;644123;216;31705;-76
2022/05/28 06:11:15;;;;;;;1.00;0.70;;;11.50;1.40;;;12.73;100.00;95665.92;646582;212;31795;-75
2022/05/28 06:13:56;;;;;;;0.70;0.50;;;11.60;1.40;;;12.67;100.00;95664.78;646876;216;31529;-74
2022/05/28 06:16:38;;;;;;;0.70;0.70;;;11.50;1.40;;;12.47;100.00;95664.31;646041;216;31549;-74
2022/05/28 06:19:20;;;;;;;0.80;0.60;;;11.30;1.40;;;12.65;100.00;95666.40;646594;216;31538;-74
2022/05/28 06:22:01;;;;;;;1.50;0.80;;;11.50;1.40;;;12.61;100.00;95663.60;647502;216;31604;-75
2022/05/28 06:24:43;;;;;;;2.60;0.80;;;11.50;1.40;;;12.61;100.00;95669.48;646497;216;31555;-74
2022/05/28 06:27:25;;;;;;;0.90;0.67;;;11.60;1.40;;;13.04;100.00;95676.58;645841;216;31555;-74
2022/05/28 06:30:08;;;;;;;0.67;0.63;;;11.90;1.40;;;13.27;100.00;95672.00;646039;216;31510;-75
2022/05/28 06:32:49;;;;;;;1.00;0.60;;;11.90;1.40;;;13.07;100.00;95673.34;647167;216;31542;-76
2022/05/28 06:35:51;;;;;;;2.90;0.90;;;11.90;1.40;;;12.90;100.00;95671.58;646062;216;42464;-75
2022/05/28 06:38:36;;;;;;;3.00;1.30;;;11.70;1.40;;;13.08;100.00;95668.94;647048;216;31509;-79
2022/05/28 06:41:24;;;;;;;1.90;1.10;;;12.00;1.40;;;12.99;100.00;95663.94;646576;216;31583;-74
2022/05/28 06:44:05;;;;;;;1.30;1.10;;;11.70;1.40;;;12.86;100.00;95666.05;647017;216;31555;-74
2022/05/28 06:46:47;;;;;;;1.03;0.90;;;11.90;1.40;;;13.27;100.00;95666.84;644760;216;32201;-74
2022/05/28 06:49:29;;;;;;;1.25;0.90;;;12.00;1.40;;;13.34;100.00;95659.80;647228;212;31474;-76
2022/05/28 06:52:11;;;;;;;2.73;1.40;;;12.10;1.40;;;13.09;100.00;95666.20;647049;216;31550;-75
2022/05/28 06:54:52;;;;;;;1.20;1.10;;;11.90;1.40;;;13.05;100.00;95655.09;646380;216;33218;-74
2022/05/28 06:57:37;;;;;;;1.00;0.90;;;12.10;1.40;;;13.34;100.00;95662.53;645122;216;34551;-75
2022/05/28 07:00:19;;;;;;;0.80;0.80;;;12.10;1.40;;;13.27;100.00;95657.95;620646;222;32425;-75
2022/05/28 07:03:01;;;;;;;1.30;1.20;;;12.20;1.40;;;13.19;100.00;95652.70;645641;212;31605;-74
2022/05/28 07:05:49;;;;;;;1.30;1.20;;;12.00;1.40;;;13.63;100.00;95653.77;620878;222;33728;-81
2022/05/28 07:08:36;;;;;;;5.78;1.55;;;12.60;1.40;;;14.03;100.00;95660.02;644230;212;31681;-75
2022/05/28 07:11:18;;;;;;;1.00;0.90;;;12.80;1.40;;;14.33;100.00;95663.66;646673;216;35085;-74
2022/05/28 07:14:00;;;;;;;3.10;1.00;;;13.00;1.40;;;13.86;100.00;95669.18;646500;216;31710;-74
2022/05/28 07:16:41;;;;;;;0.90;0.80;;;12.40;1.40;;;13.96;100.00;95668.01;645049;212;42112;-75
2022/05/28 07:19:23;;;;;;;0.70;0.60;;;12.80;1.40;;;14.67;100.00;95666.16;645326;216;32131;-74
2022/05/28 07:22:05;;;;;;;2.00;0.80;;;13.40;1.40;;;14.75;100.00;95669.92;645459;216;31524;-75
2022/05/28 07:24:46;;;;;;;1.27;1.10;;;13.10;1.40;;;14.52;100.00;95671.59;647092;212;31682;-75
2022/05/28 07:27:28;;;;;;;1.40;0.70;;;12.90;1.40;;;14.16;100.00;95671.82;618520;226;42654;-75
2022/05/28 07:30:10;;;;;;;0.98;0.80;;;12.80;1.40;;;13.78;100.00;95675.19;645649;212;37210;-74
2022/05/28 07:32:52;;;;;;;0.80;0.80;;;12.50;1.40;;;13.44;100.00;95677.47;646443;216;42764;-74
2022/05/28 07:35:54;;;;;;;1.02;0.85;;;12.40;1.40;;;13.39;100.00;95670.52;646359;212;31557;-74
2022/05/28 07:38:36;;;;;;;3.10;1.10;;;12.30;1.40;;;13.29;100.00;95668.41;646945;216;33193;-74
2022/05/28 07:41:17;;;;;;;1.43;0.60;;;12.10;1.40;;;12.82;100.00;95659.42;646370;216;32115;-74
2022/05/28 07:43:59;;;;;;;0.50;0.45;;;11.70;1.40;;;13.27;100.00;95666.19;646505;216;31891;-74
2022/05/28 07:46:44;;;;;;;1.60;0.65;;;12.20;1.40;;;13.06;100.00;95669.00;646064;212;31898;-74
2022/05/28 07:49:26;;;;;;;1.30;0.80;;;12.20;1.40;;;13.41;100.00;95671.02;645999;216;31569;-75
2022/05/28 07:52:08;;;;;;;1.10;0.70;;;12.20;1.40;;;13.10;100.00;95673.41;646200;216;31572;-74
2022/05/28 07:54:49;;;;;;;1.20;0.70;;;12.10;1.40;;;13.23;100.00;95672.95;646960;216;32118;-75
2022/05/28 07:57:31;;;;;;;2.65;0.70;;;12.30;1.40;;;13.40;100.00;95669.92;646639;212;32092;-75
2022/05/28 08:00:14;;;;;;;3.92;0.82;;;12.40;1.40;;;13.52;100.00;95669.52;647553;216;31639;-75
2022/05/28 08:02:56;;;;;;;1.60;0.77;;;12.60;1.40;;;13.59;98.37;95664.53;646989;212;32041;-75
2022/05/28 08:05:37;;;;;;;0.80;0.80;;;12.60;1.40;;;13.59;96.19;95667.72;645997;212;32925;-74
2022/05/28 08:08:19;;;;;;;1.48;0.68;;;12.60;1.40;;;13.42;92.74;95671.70;645826;212;36005;-74
2022/05/28 08:11:01;;;;;;;1.70;0.70;;;12.70;1.40;;;13.67;89.28;95676.27;632198;222;31854;-76
2022/05/28 08:13:42;;;;;;;0.80;0.60;;;12.90;1.40;;;13.86;86.48;95675.65;646924;216;31534;-75
2022/05/28 08:16:24;;;;;;;0.57;0.43;;;13.10;1.40;;;13.86;81.13;95678.45;646058;216;31513;-74
2022/05/28 08:19:08;;;;;;;0.70;0.50;;;13.20;1.40;;;13.76;82.31;95677.92;647387;216;31928;-75
2022/05/28 08:27:11;;;;;;;2.03;0.60;;;13.30;1.40;;;14.14;80.00;95672.55;646583;212;31564;-74
2022/05/28 08:29:53;;;;;;;1.25;0.60;;;13.00;1.40;;;13.85;82.83;95674.17;646823;216;33075;-75
2022/05/28 08:32:34;;;;;;;0.60;0.45;;;12.90;1.40;;;14.02;84.01;95673.33;620710;226;42369;-74
2022/05/28 08:35:51;;;;;;;0.60;0.50;;;13.00;1.40;;;14.40;86.09;95665.51;644840;212;33573;-75
2022/05/28 08:38:33;;;;;;;0.80;0.40;;;13.50;1.40;;;14.06;73.60;95676.27;646187;216;31632;-75
2022/05/28 08:41:15;;;;;;;2.25;0.68;;;13.10;1.40;;;14.11;74.28;95673.44;646279;212;37620;-75
2022/05/28 08:44:01;;;;;;;1.70;0.60;;;13.20;1.40;;;14.32;70.20;95673.03;645880;216;31533;-75
2022/05/28 08:46:43;;;;;;;1.50;0.40;;;13.40;1.40;;;14.28;67.91;95673.95;646219;216;42169;-76
2022/05/28 08:49:24;;;;;;;0.95;0.37;;;13.30;1.40;;;14.34;71.72;95668.87;646240;214;31673;-75
2022/05/28 08:52:12;;;;;;;1.02;0.55;;;13.80;1.40;;;14.55;70.05;95662.97;619767;226;42487;-75
2022/05/28 08:54:57;;;;;;;0.40;0.30;;;13.70;1.40;;;14.65;69.48;95670.21;646640;216;32982;-74
2022/05/28 09:00:45;;;;;;;0.60;0.52;;;13.90;1.40;;;14.81;64.61;95671.52;647011;212;31507;-74
2022/05/28 09:03:27;;;;;;;1.20;0.60;;;14.00;1.40;;;15.13;61.82;95668.89;647466;216;31529;-74
2022/05/28 09:06:12;;;;;;;0.90;0.40;;;14.10;1.40;;;15.01;63.19;95667.33;646452;216;34818;-75
2022/05/28 09:08:57;;;;;;;0.40;0.30;;;14.00;1.40;;;15.29;62.47;95667.26;641799;216;31701;-75
2022/05/28 09:11:41;;;;;;;1.10;0.50;;;14.40;1.40;;;15.77;65.40;95663.52;645905;212;42193;-75
2022/05/28 09:14:25;;;;;;;0.50;0.40;;;15.10;1.40;;;16.07;65.46;95661.27;647206;216;42558;-75
2022/05/28 09:17:25;;;;;;;0.60;0.43;;;15.30;1.40;;;16.47;64.69;95659.92;645108;216;31512;-75
2022/05/28 09:20:09;;;;;;;0.80;0.37;;;15.70;1.40;;;16.53;59.06;95659.41;646935;216;31611;-76
2022/05/28 09:22:51;;;;;;;0.43;0.30;;;16.80;1.40;;;18.16;56.59;95659.08;645249;212;31505;-74
2022/05/28 09:25:32;;;;;;;0.77;0.40;;;20.10;1.40;;;18.80;50.03;95660.30;645862;212;32392;-75
2022/05/28 09:28:32;;;;;;;0.40;0.20;;;19.60;1.40;;;18.81;47.88;95659.14;646478;216;31605;-75
2022/05/28 09:31:19;;;;;;;1.15;0.50;;;20.60;1.40;;;19.03;49.54;95659.89;647436;212;31512;-75
2022/05/28 09:35:57;;;;;;;1.00;0.40;;;19.60;1.40;;;18.03;51.52;95662.31;645945;216;31491;-75
2022/05/28 09:38:55;;;;;;;0.70;0.50;;;18.60;1.40;;;18.63;50.18;95660.88;645832;212;31696;-75
2022/05/28 09:41:43;;;;;;;0.62;0.40;;;19.60;1.40;;;18.61;47.96;95658.59;647431;212;31644;-75
2022/05/28 09:44:35;;;;;;;2.85;0.60;;;18.90;1.40;;;18.52;48.53;95652.56;647027;212;32490;-75
2022/05/28 09:47:17;;;;;;;0.90;0.50;;;19.20;1.40;;;19.68;48.55;95643.86;646305;216;31582;-75
2022/05/28 09:50:02;;;;;;;1.10;0.50;;;19.70;1.40;;;20.17;50.95;95642.09;646333;216;31737;-75
2022/05/28 09:55:31;;;;;;;0.70;0.50;;;20.60;1.40;;;20.45;45.94;95637.80;647591;216;31609;-76
2022/05/28 09:58:13;;;;;;;1.00;0.40;;;20.00;1.40;;;20.02;47.08;95644.16;618200;226;31853;-76
2022/05/28 10:00:54;;;;;;;2.30;0.60;;;19.90;1.40;;;20.84;48.25;95636.20;618908;222;32020;-76
2022/05/28 10:06:23;;;;;;;1.70;0.50;;;21.00;1.40;;;24.04;43.34;95625.56;646521;216;31521;-76
2022/05/28 10:09:12;;;;;;;0.75;0.40;;;22.30;1.40;;;23.24;41.59;95628.57;618468;222;31893;-76
2022/05/28 10:11:54;;;;;;;0.80;0.40;;;21.80;1.40;;;22.21;42.93;95634.97;646289;216;31685;-76
2022/05/28 10:14:36;;;;;;;1.50;0.50;;;21.00;1.40;;;21.39;42.46;95633.36;648194;212;31499;-76
2022/05/28 10:17:18;;;;;;;1.40;0.90;;;19.80;1.40;;;21.64;43.42;95633.91;646989;212;31592;-80
2022/05/28 10:20:00;;;;;;;0.90;0.60;;;20.90;1.40;;;21.57;41.51;95631.61;646431;216;40812;-76
2022/05/28 10:22:41;;;;;;;0.85;0.43;;;20.60;1.40;;;24.22;40.85;95625.39;646413;212;31923;-76
2022/05/28 10:25:35;;;;;;;0.95;0.50;;;22.20;1.40;;;22.73;41.79;95626.77;647335;216;31631;-76
2022/05/28 10:28:29;;;;;;;0.95;0.40;;;21.00;1.40;;;23.27;40.67;95626.40;645577;216;31724;-77
2022/05/28 10:31:16;;;;;;;0.70;0.50;;;22.00;1.40;;;22.32;42.99;95627.83;646478;215;31509;-76
2022/05/28 10:35:52;;;;;;;1.73;0.60;;;19.40;1.40;;;20.85;43.16;95629.00;619798;226;35864;-76
2022/05/28 10:38:33;;;;;;;1.17;0.55;;;18.00;1.40;;;19.67;45.88;95625.73;646390;216;31592;-75
2022/05/28 10:41:16;;;;;;;1.10;1.00;;;17.20;1.40;;;20.65;45.93;95625.35;645781;212;32190;-76
2022/05/28 10:43:57;;;;;;;1.00;0.77;;;18.70;1.40;;;20.74;44.79;95629.84;646793;216;31469;-76
2022/05/28 10:47:29;;;;;;;1.33;0.50;;;19.80;1.40;;;22.21;44.52;95622.53;646523;216;32077;-78
2022/05/28 10:50:25;;;;;;;1.83;0.47;;;21.20;1.40;;;23.19;42.85;95625.99;645936;216;31526;-77
2022/05/28 10:53:22;;;;;;;0.73;0.50;;;21.40;1.40;;;24.71;41.08;95616.47;646608;216;31497;-76
2022/05/28 10:56:35;;;;;;;4.47;0.60;;;22.30;1.40;;;24.41;39.42;95609.64;645317;212;31688;-76
2022/05/28 10:59:32;;;;;;;1.00;0.40;;;20.10;1.40;;;23.45;40.79;95611.99;646097;216;42096;-76
2022/05/28 11:05:34;;;;;;;1.27;0.60;;;19.90;1.40;;;21.74;41.14;95611.29;646473;212;31537;-76
2022/05/28 11:08:25;;;;;;;1.20;0.50;;;19.30;1.40;;;23.05;42.40;95603.30;646766;216;31851;-76
2022/05/28 11:11:12;;;;;;;0.70;0.50;;;20.70;1.40;;;24.09;37.42;95595.63;645440;216;31616;-75
2022/05/28 11:14:18;;;;;;;1.00;0.30;;;21.00;1.40;;;24.36;38.90;95596.47;619014;222;31992;-76
2022/05/28 11:17:25;;;;;;;1.30;0.70;;;20.80;1.40;;;24.54;38.70;95594.97;645833;212;32027;-76
2022/05/28 11:20:07;;;;;;;0.70;0.40;;;20.60;1.40;;;24.38;38.53;95583.32;645619;216;31504;-76
2022/05/28 11:28:02;;;;;;;1.85;0.60;;;20.80;1.40;;;24.87;39.25;95569.52;621603;226;31832;-76
2022/05/28 11:30:45;;;;;;;1.25;0.50;;;21.10;1.40;;;26.35;37.38;95570.30;644469;216;31474;-76
2022/05/28 11:35:55;;;;;;;1.55;0.60;;;21.90;1.40;;;26.38;34.89;95571.34;647864;212;31513;-76
2022/05/28 11:38:41;;;;;;;0.80;0.50;;;21.30;1.40;;;25.87;37.33;95568.70;617662;222;42566;-77
2022/05/28 11:41:24;;;;;;;1.40;0.50;;;22.80;1.40;;;25.85;35.15;95570.98;648597;212;31521;-76
2022/05/28 11:44:12;;;;;;;2.03;0.60;;;22.30;1.40;;;27.49;34.40;95557.88;647049;212;31707;-80
2022/05/28 11:47:02;;;;;;;2.30;0.70;;;22.80;1.40;;;26.81;34.23;95556.27;644651;216;31467;-76
2022/05/28 11:52:53;;;;;;;1.10;0.43;;;21.50;1.40;;;25.98;35.80;95555.43;648377;216;31620;-77
2022/05/28 11:55:35;;;;;;;0.90;0.45;;;21.10;1.40;;;25.12;35.94;95550.77;646557;216;31571;-76
2022/05/28 11:58:16;;;;;;;3.00;0.60;;;20.20;1.40;;;24.58;36.02;95547.30;646237;216;31648;-76
2022/05/28 12:01:04;;;;;;;1.10;0.40;;;19.10;1.40;;;25.14;38.88;95548.15;648433;212;32110;-78
2022/05/28 12:03:46;;;;;;;0.95;0.40;;;20.90;1.40;;;25.89;36.09;95540.07;648284;212;31545;-77
2022/05/28 12:06:35;;;;;;;1.00;0.50;;;20.50;1.40;;;25.01;36.73;95540.21;650588;212;31474;-76
2022/05/28 12:09:20;;;;;;;0.73;0.40;;;19.90;1.40;;;23.45;38.15;95547.19;641962;216;31669;-75
2022/05/28 12:12:20;;;;;;;1.20;0.60;;;19.10;1.40;;;24.22;40.62;95538.17;652033;212;31655;-78
2022/05/28 12:17:58;;;;;;;0.88;0.45;;;21.00;1.40;;;25.76;36.62;95522.33;617689;226;42821;-78
2022/05/28 12:20:51;;;;;;;0.73;0.43;;;21.30;1.40;;;25.93;34.68;95523.29;650045;216;31475;-75
2022/05/28 12:23:36;;;;;;;1.70;0.70;;;21.30;1.40;;;24.45;35.32;95515.64;647715;212;31524;-76